Time;durP1;ratioP1;P1;durP2;ratioP2;P2;SDS_P1;SDS_P2;PMS_P1;PMS_P2;Temp;Humidity;BMP_temperature;BMP_pressure;BME280_temperature;BME280_humidity;BME280_pressure;Samples;Min_cycle;Max_cycle;Signal;HPM_P1;HPM_P2
2023/06/27 06:38:35;;;;;;;7.28;2.10;;;;;;;18.89;56.01;97003.44;2085518;28;20575;-59
2023/06/27 06:40:43;;;;;;;9.63;2.63;;;;;;;18.87;55.18;97006.19;2085345;28;20580;-59
2023/06/27 06:41:44;;;;;;;14.40;2.50;;;;;;;19.50;54.92;97005.19;2082836;28;20557;-59
2023/06/27 06:42:46;;;;;;;20.02;2.35;;;;;;;19.66;53.95;96997.75;2083215;28;20259;-59
2023/06/27 06:43:47;;;;;;;12.68;2.50;;;;;;;20.01;53.68;97007.50;2071481;28;20227;-59
2023/06/27 06:44:48;;;;;;;17.42;2.25;;;;;;;19.91;52.99;96998.59;2074243;28;20645;-59
2023/06/27 06:45:50;;;;;;;15.75;2.80;;;;;;;20.15;52.28;97003.78;2074404;28;20248;-59
2023/06/27 06:46:52;;;;;;;10.23;2.40;;;;;;;19.91;52.89;97001.22;2074235;28;20581;-59
2023/06/27 06:47:54;;;;;;;20.45;2.22;;;;;;;20.16;52.35;97005.47;2070761;28;20196;-59
2023/06/27 06:48:56;;;;;;;14.10;2.35;;;;;;;20.46;51.77;97011.16;2071421;28;20242;-59
2023/06/27 06:49:57;;;;;;;16.05;2.35;;;;;;;20.26;51.83;97013.53;2073694;28;20800;-59
2023/06/27 06:50:59;;;;;;;17.45;2.45;;;;;;;20.37;51.91;97013.53;2073620;28;20682;-59
2023/06/27 06:52:00;;;;;;;15.77;2.40;;;;;;;20.17;52.09;97008.97;2072595;28;20221;-59
2023/06/27 06:53:01;;;;;;;11.57;2.28;;;;;;;20.29;51.99;97009.81;2072997;28;20587;-59
2023/06/27 06:54:03;;;;;;;10.13;1.95;;;;;;;20.51;51.33;97012.44;2074024;28;20208;-59
2023/06/27 06:56:49;;;;;;;7.13;2.20;;;;;;;20.35;52.18;97002.22;2084062;28;20554;-59
2023/06/27 06:57:51;;;;;;;6.55;2.05;;;;;;;20.56;51.54;97001.47;2081036;28;20204;-59
2023/06/27 06:58:52;;;;;;;13.25;2.15;;;;;;;20.44;51.73;97003.28;2078519;28;20248;-60
2023/06/27 06:59:54;;;;;;;7.75;2.38;;;;;;;20.44;51.26;97000.63;2082113;28;20528;-60
2023/06/27 07:00:55;;;;;;;12.93;2.78;;;;;;;20.81;51.02;97015.44;2088149;28;20253;-59
2023/06/27 07:01:57;;;;;;;9.20;1.88;;;;;;;20.58;50.69;97007.50;2087637;28;20192;-59
2023/06/27 07:02:58;;;;;;;8.90;1.77;;;;;;;20.58;51.23;97009.31;2079302;28;20204;-59
2023/06/27 07:04:00;;;;;;;10.70;1.95;;;;;;;20.79;51.07;97009.44;2078894;28;20197;-60
2023/06/27 07:05:01;;;;;;;6.32;1.90;;;;;;;20.94;50.47;97013.50;2079814;28;20205;-60
2023/06/27 07:06:03;;;;;;;9.20;2.08;;;;;;;20.56;50.10;97015.56;2079670;28;20666;-59
2023/06/27 07:07:05;;;;;;;6.30;2.05;;;;;;;20.36;51.34;97011.84;2079895;28;20550;-59
2023/06/27 07:08:06;;;;;;;4.50;1.77;;;;;;;19.87;52.28;97013.88;2079224;28;20632;-60
2023/06/27 07:09:08;;;;;;;7.93;1.83;;;;;;;20.03;52.27;97015.34;2081480;28;20205;-60
2023/06/27 07:10:09;;;;;;;7.38;1.80;;;;;;;20.39;52.13;97011.63;2079425;28;20227;-59
2023/06/27 07:11:11;;;;;;;5.88;1.92;;;;;;;20.32;51.34;97012.22;2079613;28;20243;-60
2023/06/27 07:12:12;;;;;;;8.05;2.30;;;;;;;20.69;50.46;97006.66;2077753;28;20536;-60
2023/06/27 07:13:14;;;;;;;9.98;2.05;;;;;;;20.76;49.28;97013.19;2076239;28;20197;-60
2023/06/27 07:14:17;;;;;;;9.68;1.83;;;;;;;20.53;49.49;97005.22;2077497;28;20212;-60
2023/06/27 07:15:21;;;;;;;8.23;1.98;;;;;;;20.69;49.98;97004.00;2080787;28;20248;-60
2023/06/27 07:16:23;;;;;;;15.98;2.13;;;;;;;21.01;49.20;97011.19;2082233;28;20347;-59
2023/06/27 07:17:26;;;;;;;4.95;1.75;;;;;;;20.87;50.03;97014.97;2081756;28;20896;-60
2023/06/27 07:18:27;;;;;;;10.48;2.00;;;;;;;20.58;49.89;97006.66;2081810;28;20250;-59
2023/06/27 07:19:29;;;;;;;12.95;2.25;;;;;;;20.15;50.78;97008.22;2080358;28;20208;-60
2023/06/27 07:20:30;;;;;;;12.52;2.05;;;;;;;20.11;51.79;97009.44;2079911;28;20660;-59
2023/06/27 07:21:32;;;;;;;14.18;2.83;;;;;;;20.46;51.12;97006.66;2078514;28;20201;-59
2023/06/27 07:22:34;;;;;;;7.93;2.20;;;;;;;20.69;50.85;97019.91;2077551;28;20192;-60
2023/06/27 07:23:36;;;;;;;8.13;1.95;;;;;;;20.56;51.01;97022.72;2073954;28;20278;-59
2023/06/27 07:24:38;;;;;;;4.35;1.40;;;;;;;21.07;50.78;97012.53;2078396;28;20213;-59
2023/06/27 07:25:39;;;;;;;7.28;1.70;;;;;;;21.16;49.29;97015.25;2078205;28;20271;-60
2023/06/27 07:26:41;;;;;;;4.75;1.60;;;;;;;21.03;49.34;97012.75;2078510;28;20198;-60
2023/06/27 07:27:43;;;;;;;5.93;1.83;;;;;;;21.04;49.45;97006.47;2082078;28;20228;-59
2023/06/27 07:28:44;;;;;;;8.38;1.90;;;;;;;20.99;49.39;97013.16;2076555;28;20224;-59
2023/06/27 07:29:46;;;;;;;12.20;2.20;;;;;;;21.00;49.57;97015.66;2082221;28;20288;-59
2023/06/27 07:30:48;;;;;;;12.02;2.50;;;;;;;20.92;49.72;97007.47;2080756;28;20241;-60
2023/06/27 07:31:49;;;;;;;6.70;1.60;;;;;;;21.03;49.79;97010.09;2081963;28;20201;-60
2023/06/27 07:32:51;;;;;;;10.35;2.30;;;;;;;21.47;48.61;97014.53;2078876;28;20403;-59
2023/06/27 07:33:53;;;;;;;6.03;1.60;;;;;;;21.13;49.52;97010.19;2077611;28;20216;-60
2023/06/27 07:34:54;;;;;;;8.65;1.58;;;;;;;21.11;49.23;97009.47;2079120;28;20193;-59
2023/06/27 07:35:56;;;;;;;9.82;1.77;;;;;;;21.02;49.29;97013.72;2079881;28;20724;-60
2023/06/27 07:36:57;;;;;;;12.25;2.47;;;;;;;20.14;50.21;97007.41;2081061;28;20252;-60
2023/06/27 07:37:59;;;;;;;15.63;2.67;;;;;;;20.10;50.46;97003.31;2080102;28;20200;-60
2023/06/27 07:39:00;;;;;;;8.40;2.63;;;;;;;20.80;50.39;97011.13;2082288;28;20311;-60
2023/06/27 07:40:07;;;;;;;7.88;1.55;;;;;;;21.23;49.98;97012.09;2078430;28;20199;-60
2023/06/27 07:41:08;;;;;;;3.78;1.95;;;;;;;21.49;48.97;97013.44;2081857;28;20799;-60
2023/06/27 07:42:11;;;;;;;4.70;1.63;;;;;;;21.00;48.55;96998.88;2080418;28;20197;-60
2023/06/27 07:43:12;;;;;;;5.85;1.80;;;;;;;21.50;48.71;97014.28;2079257;28;20201;-60
2023/06/27 07:44:14;;;;;;;32.88;3.05;;;;;;;22.00;48.01;97014.53;2080266;28;20243;-60
2023/06/27 07:45:15;;;;;;;6.03;1.85;;;;;;;21.90;47.68;97010.09;2080725;28;20201;-59
2023/06/27 07:46:17;;;;;;;8.15;2.10;;;;;;;21.95;47.21;97013.22;2081083;28;20266;-60
2023/06/27 07:47:18;;;;;;;6.50;1.60;;;;;;;21.60;48.63;97014.38;2080567;28;20352;-59
2023/06/27 07:48:20;;;;;;;7.85;1.90;;;;;;;22.17;47.42;97002.44;2082447;28;20220;-60
2023/06/27 07:49:21;;;;;;;3.90;1.70;;;;;;;22.30;47.02;97010.19;2083484;28;20200;-59
2023/06/27 07:50:23;;;;;;;7.47;1.70;;;;;;;22.39;46.45;97013.88;2082371;28;20196;-60
2023/06/27 07:51:28;;;;;;;3.72;1.60;;;;;;;22.30;46.71;97014.66;2082299;28;20198;-60
2023/06/27 07:52:30;;;;;;;6.70;2.05;;;;;;;22.23;46.63;97017.00;2078739;28;20216;-60
2023/06/27 07:53:31;;;;;;;12.90;1.67;;;;;;;22.37;46.39;97017.66;2076561;28;20312;-60
2023/06/27 07:54:34;;;;;;;10.38;2.35;;;;;;;22.36;46.51;97022.13;2079995;28;20197;-60
2023/06/27 07:55:35;;;;;;;5.90;2.10;;;;;;;22.43;46.55;97025.94;2078544;28;20233;-60
2023/06/27 07:56:37;;;;;;;14.18;2.20;;;;;;;22.27;46.46;97022.91;2080972;28;20228;-60
2023/06/27 07:57:38;;;;;;;12.18;2.40;;;;;;;22.25;46.51;97025.69;2081801;28;20196;-60
2023/06/27 07:58:40;;;;;;;10.18;2.35;;;;;;;22.32;46.55;97036.63;2079758;28;20718;-60
2023/06/27 07:59:42;;;;;;;12.38;2.00;;;;;;;21.83;46.76;97025.75;2082352;28;20205;-60
2023/06/27 08:00:43;;;;;;;16.92;1.58;;;;;;;21.74;47.54;97019.38;2082990;28;20394;-60
2023/06/27 08:01:45;;;;;;;6.75;1.30;;;;;;;21.97;47.25;97005.97;2079633;28;20213;-60
2023/06/27 08:02:46;;;;;;;17.70;1.90;;;;;;;22.24;46.14;97009.88;2078797;28;20656;-60
2023/06/27 08:03:48;;;;;;;9.82;2.13;;;;;;;21.72;47.22;97013.34;2077758;28;20224;-60
2023/06/27 08:04:50;;;;;;;6.13;1.50;;;;;;;21.74;47.71;97010.56;2081164;28;20238;-60
2023/06/27 08:05:54;;;;;;;4.75;1.60;;;;;;;22.11;47.26;97010.94;2082144;28;20193;-60
2023/06/27 08:06:55;;;;;;;6.50;1.77;;;;;;;22.21;47.02;97005.66;2081476;28;20196;-60
2023/06/27 08:07:57;;;;;;;6.90;1.95;;;;;;;22.57;46.74;97007.94;2074936;28;20246;-60
2023/06/27 08:08:58;;;;;;;5.82;1.65;;;;;;;22.38;45.84;97011.38;2075721;28;20229;-60
2023/06/27 08:10:00;;;;;;;12.68;2.38;;;;;;;21.35;47.96;97003.94;2075844;28;20197;-60
2023/06/27 08:11:02;;;;;;;6.13;1.60;;;;;;;21.68;47.73;97010.09;2076577;28;20797;-60
2023/06/27 08:12:06;;;;;;;6.80;1.90;;;;;;;22.32;46.94;97012.69;2076687;28;20801;-60
2023/06/27 08:13:07;;;;;;;3.85;1.73;;;;;;;22.34;46.35;97008.94;2073753;28;20573;-60
2023/06/27 08:14:09;;;;;;;4.13;1.20;;;;;;;22.40;46.96;97001.41;2068205;28;20230;-60
2023/06/27 08:15:10;;;;;;;8.82;2.05;;;;;;;22.20;46.53;97017.28;2067300;28;20205;-60
2023/06/27 08:16:12;;;;;;;7.70;1.63;;;;;;;22.22;46.22;97002.03;2073857;28;20236;-60
2023/06/27 08:17:13;;;;;;;11.57;2.10;;;;;;;21.73;46.83;96996.44;2077280;28;20217;-59
2023/06/27 08:18:15;;;;;;;4.72;1.90;;;;;;;21.36;47.04;96994.19;2077835;28;20197;-60
2023/06/27 08:19:16;;;;;;;6.63;1.67;;;;;;;21.60;47.00;96996.63;2074604;28;20198;-60
2023/06/27 08:20:18;;;;;;;6.70;2.10;;;;;;;21.87;46.93;96991.78;2073829;28;20284;-60
2023/06/27 08:21:20;;;;;;;5.32;2.00;;;;;;;22.23;46.75;96995.72;2074490;28;20268;-60
2023/06/27 08:22:21;;;;;;;8.90;1.92;;;;;;;21.99;46.21;96991.56;2072177;28;20947;-60
2023/06/27 08:23:23;;;;;;;6.20;1.90;;;;;;;22.30;46.19;97001.38;2074491;28;20222;-60
2023/06/27 08:24:24;;;;;;;4.82;1.30;;;;;;;22.76;46.21;96997.34;2076303;28;20197;-60
2023/06/27 08:25:25;;;;;;;8.07;2.15;;;;;;;22.70;45.10;96983.75;2076013;28;20213;-60
2023/06/27 08:26:27;;;;;;;5.53;1.90;;;;;;;22.70;45.04;96984.56;2073363;28;20205;-60
2023/06/27 08:27:28;;;;;;;11.27;2.20;;;;;;;22.98;45.51;96990.94;2074327;28;20208;-60
2023/06/27 08:28:30;;;;;;;6.43;1.70;;;;;;;23.36;44.41;96988.47;2073582;28;20745;-60
2023/06/27 08:29:34;;;;;;;4.63;2.25;;;;;;;23.47;44.00;96990.16;2075134;28;20208;-60
2023/06/27 08:30:38;;;;;;;6.60;2.17;;;;;;;23.63;43.80;96985.09;2074671;28;20208;-60
2023/06/27 08:31:41;;;;;;;6.55;2.08;;;;;;;23.69;43.04;96994.34;2074260;28;20405;-60
2023/06/27 08:32:42;;;;;;;4.60;1.67;;;;;;;23.62;43.37;96985.25;2075235;28;20341;-60
2023/06/27 08:33:44;;;;;;;3.90;2.00;;;;;;;23.54;44.15;96985.97;2075098;28;20245;-60
2023/06/27 08:34:45;;;;;;;21.27;2.95;;;;;;;23.47;43.61;96985.66;2075192;28;20189;-60
2023/06/27 08:35:48;;;;;;;11.63;2.08;;;;;;;23.56;44.72;96980.47;2072769;28;20868;-60
2023/06/27 08:36:51;;;;;;;11.98;1.95;;;;;;;22.90;45.10;96976.66;2072909;28;20796;-60
2023/06/27 08:37:52;;;;;;;7.13;2.30;;;;;;;22.35;45.54;96985.84;2076237;28;20205;-60
2023/06/27 08:38:54;;;;;;;9.15;2.15;;;;;;;23.01;45.11;96976.53;2073940;28;20225;-60
2023/06/27 08:39:55;;;;;;;7.35;2.28;;;;;;;23.39;43.56;96982.88;2073499;28;20832;-60
2023/06/27 08:40:57;;;;;;;12.20;2.63;;;;;;;22.87;44.58;96977.75;2072049;28;20867;-60
2023/06/27 08:41:58;;;;;;;10.02;2.38;;;;;;;22.73;44.93;96975.47;2072603;28;20193;-60
2023/06/27 08:43:00;;;;;;;13.63;2.35;;;;;;;23.24;44.80;96971.78;2073174;28;20220;-60
2023/06/27 08:44:02;;;;;;;7.43;2.13;;;;;;;23.41;44.90;96970.22;2073689;28;20197;-60
2023/06/27 08:45:04;;;;;;;4.95;1.50;;;;;;;23.65;44.81;96963.63;2076002;28;20202;-60
2023/06/27 08:46:08;;;;;;;7.88;2.00;;;;;;;23.25;44.80;96969.97;2073295;28;20340;-59
2023/06/27 08:47:12;;;;;;;13.32;1.95;;;;;;;23.42;44.74;96973.75;2075677;28;20190;-63
2023/06/27 08:48:16;;;;;;;6.00;1.70;;;;;;;23.60;44.87;96976.53;2074640;28;20234;-60
2023/06/27 08:49:22;;;;;;;8.35;2.13;;;;;;;23.86;44.43;96978.59;2073982;28;20284;-60
2023/06/27 08:50:27;;;;;;;14.30;2.42;;;;;;;23.48;44.20;96975.88;2073795;28;20197;-60
2023/06/27 08:51:31;;;;;;;9.40;2.17;;;;;;;22.58;45.48;96983.03;2071566;28;20661;-60
2023/06/27 08:52:55;;;;;;;10.32;2.85;;;;;;;22.65;45.72;96971.69;2070617;28;20248;-60
2023/06/27 08:54:07;;;;;;;7.72;2.38;;;;;;;23.55;44.61;96971.63;2075172;28;20385;-60
2023/06/27 08:55:23;;;;;;;9.30;2.05;;;;;;;23.33;44.62;96974.63;2076509;28;20235;-60
2023/06/27 08:56:27;;;;;;;6.78;2.15;;;;;;;22.69;44.95;96966.94;2074200;28;20268;-60
2023/06/27 08:57:31;;;;;;;11.70;2.38;;;;;;;23.12;45.04;96968.41;2075591;28;20209;-60
2023/06/27 08:58:46;;;;;;;6.15;1.88;;;;;;;23.68;44.14;96970.50;2072667;28;20234;-60
2023/06/27 08:59:48;;;;;;;4.70;1.85;;;;;;;23.57;44.11;96963.50;2073509;28;20204;-60
2023/06/27 09:00:52;;;;;;;10.45;2.05;;;;;;;23.28;44.25;96964.38;2073337;28;20199;-60
2023/06/27 09:01:55;;;;;;;7.78;2.10;;;;;;;23.64;44.07;96962.78;2073663;28;20286;-60
2023/06/27 09:02:57;;;;;;;7.43;2.38;;;;;;;23.02;45.58;96959.56;2077122;28;20224;-60
2023/06/27 09:04:00;;;;;;;8.90;1.90;;;;;;;23.91;44.50;96963.03;2076614;28;20225;-60
2023/06/27 09:05:04;;;;;;;8.95;1.65;;;;;;;23.77;44.36;96959.81;2074384;28;20241;-60
2023/06/27 09:06:07;;;;;;;9.88;2.05;;;;;;;23.72;44.09;96966.56;2074790;28;20883;-60
2023/06/27 09:07:10;;;;;;;7.53;2.45;;;;;;;23.48;44.38;96967.88;2075562;28;20227;-60
2023/06/27 09:08:12;;;;;;;5.53;2.00;;;;;;;23.89;43.70;96965.00;2073756;28;20256;-60
2023/06/27 09:09:15;;;;;;;5.70;1.98;;;;;;;23.61;43.53;96965.72;2077348;28;20258;-60
2023/06/27 09:10:17;;;;;;;8.13;2.00;;;;;;;22.76;44.92;96959.25;2077143;28;20304;-60
2023/06/27 09:11:20;;;;;;;11.65;2.60;;;;;;;23.36;44.77;96961.81;2075196;28;20224;-60
2023/06/27 09:12:22;;;;;;;6.75;1.63;;;;;;;23.90;44.04;96950.69;2073533;28;20201;-60
2023/06/27 09:13:24;;;;;;;9.18;1.98;;;;;;;23.99;43.60;96943.66;2073100;28;20898;-60
2023/06/27 09:14:26;;;;;;;7.22;1.65;;;;;;;24.33;43.30;96949.28;2071590;28;20748;-60
2023/06/27 09:15:28;;;;;;;8.55;2.50;;;;;;;24.61;42.63;96958.13;2078131;28;20211;-60
2023/06/27 09:16:30;;;;;;;8.25;2.20;;;;;;;24.67;42.70;96951.38;2076354;28;20284;-60
2023/06/27 09:17:31;;;;;;;7.63;1.80;;;;;;;24.84;42.08;96952.41;2074667;28;20222;-60
2023/06/27 09:18:38;;;;;;;12.82;1.80;;;;;;;24.96;42.15;96952.19;2074102;28;20221;-60
2023/06/27 09:19:39;;;;;;;9.85;2.22;;;;;;;24.26;43.34;96962.38;2073178;28;20205;-60
2023/06/27 09:20:42;;;;;;;4.15;1.30;;;;;;;24.42;43.25;96952.91;2072305;28;20588;-60
2023/06/27 09:21:47;;;;;;;7.00;1.80;;;;;;;24.62;42.52;96954.47;2072552;28;20282;-60
2023/06/27 09:22:50;;;;;;;4.72;2.40;;;;;;;25.03;41.40;96951.41;2069281;28;20193;-60
2023/06/27 09:23:53;;;;;;;9.10;2.00;;;;;;;24.48;42.44;96960.31;2076020;28;20233;-62
2023/06/27 09:25:20;;;;;;;8.15;1.70;;;;;;;24.15;42.45;96956.38;2073739;28;20214;-61
2023/06/27 09:26:27;;;;;;;5.78;1.58;;;;;;;24.22;42.38;96960.97;2071851;28;20233;-59
2023/06/27 09:27:30;;;;;;;4.80;1.55;;;;;;;23.76;42.65;96957.31;2072592;28;20208;-59
2023/06/27 09:28:31;;;;;;;8.80;2.42;;;;;;;23.71;42.48;96951.56;2074600;28;20220;-59
2023/06/27 09:29:35;;;;;;;5.50;1.95;;;;;;;23.41;43.37;96956.91;2074159;28;20206;-59
2023/06/27 09:30:51;;;;;;;11.43;1.70;;;;;;;23.72;43.22;96950.56;2074225;28;20635;-59
2023/06/27 09:32:04;;;;;;;6.53;1.70;;;;;;;23.91;42.60;96955.88;2069086;28;20191;-59
2023/06/27 09:33:06;;;;;;;7.72;1.80;;;;;;;23.60;43.02;96953.41;2072077;28;20231;-59
2023/06/27 09:34:11;;;;;;;6.80;1.42;;;;;;;23.67;43.04;96961.66;2074523;28;20855;-59
2023/06/27 09:35:16;;;;;;;4.78;1.55;;;;;;;23.82;43.54;96954.06;2072949;28;20229;-59
2023/06/27 09:36:37;;;;;;;8.90;2.15;;;;;;;23.89;43.40;96957.81;2076440;28;20246;-59
2023/06/27 09:37:41;;;;;;;12.15;2.00;;;;;;;24.04;43.40;96955.56;2076948;28;20668;-59
2023/06/27 09:38:53;;;;;;;10.35;2.38;;;;;;;23.62;42.95;96951.44;2075300;28;20222;-60
2023/06/27 09:39:55;;;;;;;5.32;1.70;;;;;;;23.47;43.60;96956.34;2075616;28;20206;-59
2023/06/27 09:41:06;;;;;;;5.82;1.45;;;;;;;23.39;43.87;96947.38;2075652;28;20197;-59
2023/06/27 09:42:08;;;;;;;6.13;1.67;;;;;;;23.60;43.95;96952.56;2076732;28;20201;-59
2023/06/27 09:43:11;;;;;;;8.32;1.75;;;;;;;23.66;43.78;96957.31;2075428;28;20201;-59
2023/06/27 09:44:16;;;;;;;8.00;1.85;;;;;;;23.55;43.24;96952.16;2076018;28;20224;-59
2023/06/27 09:45:18;;;;;;;18.20;1.70;;;;;;;23.60;42.78;96961.41;2075782;28;20270;-59
2023/06/27 09:46:20;;;;;;;15.38;1.92;;;;;;;23.41;43.58;96956.91;2073703;28;20202;-59
2023/06/27 09:47:24;;;;;;;4.15;2.00;;;;;;;23.36;43.47;96956.50;2075511;28;20714;-59
2023/06/27 09:48:28;;;;;;;7.57;1.40;;;;;;;23.29;44.28;96955.41;2071402;28;20221;-59
2023/06/27 09:49:30;;;;;;;8.60;2.05;;;;;;;23.59;43.64;96957.06;2077911;28;20219;-59
2023/06/27 09:50:32;;;;;;;13.27;1.88;;;;;;;23.19;43.41;96958.06;2071650;28;20196;-59
2023/06/27 09:51:33;;;;;;;5.03;1.63;;;;;;;23.57;43.38;96956.34;2074904;28;20209;-59
2023/06/27 09:52:35;;;;;;;12.63;1.90;;;;;;;23.78;43.09;96960.66;2072814;28;20256;-59
2023/06/27 09:53:36;;;;;;;7.60;1.60;;;;;;;23.84;42.59;96957.41;2072429;28;20248;-59
2023/06/27 09:54:44;;;;;;;4.30;1.70;;;;;;;24.08;42.10;96954.28;2072666;28;20198;-59
2023/06/27 09:55:45;;;;;;;5.05;2.08;;;;;;;23.23;43.05;96955.97;2074390;28;20204;-59
2023/06/27 09:56:51;;;;;;;9.93;2.15;;;;;;;22.54;44.38;96952.31;2074717;28;20220;-59
2023/06/27 09:57:53;;;;;;;9.57;2.05;;;;;;;22.77;44.28;96953.78;2074766;28;20264;-59
2023/06/27 09:58:55;;;;;;;6.80;1.80;;;;;;;22.90;44.76;96952.69;2076873;28;20625;-59
2023/06/27 10:00:04;;;;;;;4.88;1.50;;;;;;;23.43;43.83;96956.78;2083462;28;20205;-59
2023/06/27 10:01:06;;;;;;;8.10;2.10;;;;;;;23.35;43.51;96960.16;2080538;28;20279;-59
2023/06/27 10:02:15;;;;;;;6.22;1.50;;;;;;;23.03;43.94;96960.41;2074547;28;20416;-59
2023/06/27 10:03:19;;;;;;;8.00;1.80;;;;;;;22.88;44.36;96951.97;2073162;28;20258;-59
2023/06/27 10:04:21;;;;;;;11.77;2.20;;;;;;;22.93;44.33;96950.59;2073235;28;20239;-59
2023/06/27 10:05:25;;;;;;;4.60;1.80;;;;;;;22.81;44.37;96959.69;2073444;28;20201;-59
2023/06/27 10:06:32;;;;;;;9.40;2.00;;;;;;;22.96;44.29;96965.44;2075009;28;20193;-59
2023/06/27 10:07:34;;;;;;;15.60;1.70;;;;;;;23.04;44.28;96960.25;2072634;28;20197;-59
2023/06/27 10:08:36;;;;;;;9.93;1.90;;;;;;;23.10;44.19;96967.69;2074526;28;20233;-59
2023/06/27 10:09:38;;;;;;;5.57;1.83;;;;;;;22.97;44.58;96953.81;2070582;28;20233;-59
2023/06/27 10:10:40;;;;;;;11.57;2.05;;;;;;;23.06;44.35;96952.13;2072286;28;20220;-59
2023/06/27 10:11:42;;;;;;;11.57;2.10;;;;;;;23.31;43.98;96964.06;2073275;28;20202;-59
2023/06/27 10:12:43;;;;;;;10.05;2.00;;;;;;;22.77;44.47;96961.75;2073262;28;20195;-59
2023/06/27 10:13:45;;;;;;;8.02;1.98;;;;;;;22.63;44.47;96956.84;2070290;28;20309;-59
2023/06/27 10:14:48;;;;;;;6.25;1.75;;;;;;;22.88;44.14;96957.28;2076001;28;20253;-59
2023/06/27 10:15:49;;;;;;;10.27;1.70;;;;;;;23.05;43.99;96958.44;2076628;28;20399;-59
2023/06/27 10:16:52;;;;;;;6.60;2.17;;;;;;;22.77;43.91;96955.63;2074215;28;20292;-59
2023/06/27 10:17:54;;;;;;;8.00;2.20;;;;;;;22.97;44.41;96956.50;2073911;28;20246;-59
2023/06/27 10:18:56;;;;;;;4.97;1.80;;;;;;;23.27;43.90;96958.22;2072215;28;20244;-59
2023/06/27 10:19:57;;;;;;;8.07;2.00;;;;;;;23.36;43.31;96961.81;2070501;28;20708;-59
2023/06/27 10:20:59;;;;;;;9.95;2.15;;;;;;;23.55;42.93;96957.47;2070705;28;20200;-59
2023/06/27 10:22:01;;;;;;;4.45;1.73;;;;;;;23.20;43.44;96961.56;2075334;28;20744;-58
2023/06/27 10:23:03;;;;;;;5.60;1.80;;;;;;;23.11;43.74;96956.06;2073019;28;20215;-59
2023/06/27 10:24:06;;;;;;;16.95;2.67;;;;;;;23.04;43.75;96948.78;2074610;28;20197;-59
2023/06/27 10:25:08;;;;;;;11.43;2.42;;;;;;;23.11;44.28;96957.91;2080724;28;20424;-59
2023/06/27 10:26:10;;;;;;;4.10;1.95;;;;;;;23.31;43.72;96959.59;2079772;28;20189;-59
2023/06/27 10:27:18;;;;;;;5.93;1.88;;;;;;;23.50;43.60;96965.06;2071177;28;20206;-58
2023/06/27 10:28:19;;;;;;;11.95;1.80;;;;;;;23.61;43.45;96960.41;2072251;28;20664;-59
2023/06/27 10:29:22;;;;;;;6.47;1.60;;;;;;;23.80;43.30;96961.34;2071481;28;20197;-59
2023/06/27 10:30:25;;;;;;;12.50;2.33;;;;;;;23.70;43.32;96957.88;2072585;28;20194;-59
2023/06/27 10:31:49;;;;;;;6.90;2.10;;;;;;;23.16;43.20;96961.00;2072623;28;20237;-59
2023/06/27 10:32:51;;;;;;;6.53;2.38;;;;;;;23.52;43.69;96963.09;2072565;28;20783;-59
2023/06/27 10:33:53;;;;;;;9.85;1.73;;;;;;;23.95;43.44;96970.59;2071455;28;21053;-59
2023/06/27 10:34:57;;;;;;;5.03;1.55;;;;;;;23.91;42.35;96961.22;2069623;28;20293;-59
2023/06/27 10:36:02;;;;;;;11.02;2.15;;;;;;;24.31;42.34;96967.25;2073085;28;20198;-59
2023/06/27 10:37:05;;;;;;;6.50;1.85;;;;;;;24.80;41.70;96967.03;2072623;28;20221;-59
2023/06/27 10:38:09;;;;;;;13.88;2.10;;;;;;;24.75;41.47;96966.66;2072753;28;20836;-59
2023/06/27 10:39:31;;;;;;;14.15;2.17;;;;;;;24.23;41.75;96962.66;2073860;28;20590;-59
2023/06/27 10:41:09;;;;;;;8.80;2.20;;;;;;;23.73;42.13;96962.91;2075143;28;20184;-59
2023/06/27 10:42:18;;;;;;;7.53;1.90;;;;;;;24.18;42.09;96967.59;2055586;28;20297;-59
2023/06/27 10:43:39;;;;;;;6.45;1.70;;;;;;;24.10;42.24;96962.16;2069392;28;20202;-59
2023/06/27 10:45:09;;;;;;;3.45;1.73;;;;;;;24.74;41.96;96971.13;2069124;28;20205;-59
2023/06/27 10:46:21;;;;;;;4.53;1.67;;;;;;;24.62;41.31;96964.31;2075111;28;20197;-59
2023/06/27 10:47:23;;;;;;;8.00;1.90;;;;;;;24.69;41.65;96962.72;2073868;28;20587;-59
2023/06/27 10:48:28;;;;;;;11.52;2.10;;;;;;;24.70;41.81;96959.09;2070527;28;20222;-59
2023/06/27 10:49:35;;;;;;;9.32;2.38;;;;;;;24.52;42.03;96964.34;2072382;28;20244;-59
2023/06/27 10:50:39;;;;;;;6.60;1.73;;;;;;;24.18;41.78;96964.09;2069995;28;20535;-59
2023/06/27 10:51:44;;;;;;;4.97;1.88;;;;;;;23.84;42.57;96961.91;2068120;28;20318;-60
2023/06/27 10:53:00;;;;;;;9.48;2.10;;;;;;;23.22;43.94;96963.09;2068640;28;20292;-59
2023/06/27 10:54:08;;;;;;;5.75;1.90;;;;;;;23.68;43.53;96966.03;2068717;28;20213;-59
2023/06/27 10:55:18;;;;;;;6.15;2.45;;;;;;;23.73;42.91;96968.25;2072901;28;20875;-59
2023/06/27 10:56:27;;;;;;;6.03;2.20;;;;;;;23.43;43.49;96967.44;2072652;28;20269;-59
2023/06/27 10:57:38;;;;;;;8.00;1.90;;;;;;;23.81;43.74;96969.22;2074101;28;20311;-59
2023/06/27 10:58:44;;;;;;;8.15;2.17;;;;;;;24.23;42.60;96973.31;2072385;28;20229;-59
2023/06/27 10:59:47;;;;;;;3.90;1.88;;;;;;;24.50;42.39;96969.00;2071536;28;20190;-59
2023/06/27 11:00:50;;;;;;;6.35;2.22;;;;;;;24.17;42.51;96965.91;2070178;28;20197;-59
2023/06/27 11:02:00;;;;;;;8.52;2.03;;;;;;;24.20;42.59;96967.44;2069178;28;20201;-59
2023/06/27 11:03:04;;;;;;;5.55;1.88;;;;;;;23.69;42.99;96964.19;2067074;28;20195;-59
2023/06/27 11:04:19;;;;;;;7.35;2.55;;;;;;;23.97;43.00;96965.13;2073662;28;20204;-59
2023/06/27 11:05:40;;;;;;;4.32;1.70;;;;;;;24.16;42.82;96974.06;2073024;28;20224;-59
2023/06/27 11:06:45;;;;;;;7.80;1.60;;;;;;;24.26;42.71;96969.53;2072597;28;20198;-59
2023/06/27 11:07:54;;;;;;;6.88;2.05;;;;;;;24.35;42.20;96973.13;2075529;28;20818;-59
2023/06/27 11:08:57;;;;;;;9.88;2.25;;;;;;;24.61;41.71;96971.47;2072933;28;20219;-59
2023/06/27 11:09:58;;;;;;;6.50;1.80;;;;;;;24.29;42.28;96969.25;2073254;28;20607;-59
2023/06/27 11:10:59;;;;;;;8.80;2.33;;;;;;;23.58;42.93;96965.16;2070931;28;20241;-59
2023/06/27 11:12:08;;;;;;;7.18;2.13;;;;;;;23.84;43.36;96967.25;2071989;28;20713;-59
2023/06/27 11:13:12;;;;;;;5.85;1.85;;;;;;;24.04;42.92;96966.22;2074007;28;20528;-59
2023/06/27 11:14:14;;;;;;;6.13;1.98;;;;;;;24.20;43.08;96968.28;2072809;28;20225;-59
2023/06/27 11:15:17;;;;;;;12.25;2.00;;;;;;;24.28;42.67;96965.72;2073139;28;20197;-59
2023/06/27 11:16:23;;;;;;;4.57;1.80;;;;;;;24.31;42.59;96963.75;2072875;28;20208;-59
2023/06/27 11:17:25;;;;;;;5.05;1.58;;;;;;;24.54;42.80;96964.19;2071856;28;20205;-59
2023/06/27 11:18:27;;;;;;;8.13;2.13;;;;;;;24.66;41.96;96975.53;2075706;28;20227;-59
2023/06/27 11:19:31;;;;;;;3.78;1.77;;;;;;;24.29;42.48;96978.09;2075213;28;20225;-59
2023/06/27 11:20:35;;;;;;;4.55;1.80;;;;;;;24.18;42.52;96972.09;2075834;28;20585;-59
2023/06/27 11:21:37;;;;;;;5.05;2.00;;;;;;;24.65;42.48;96971.22;2073083;28;20300;-59
2023/06/27 11:22:38;;;;;;;4.68;1.58;;;;;;;24.65;42.10;96968.53;2074218;28;20346;-59
2023/06/27 11:23:40;;;;;;;4.70;1.63;;;;;;;24.79;41.54;96973.38;2071956;28;20253;-59
2023/06/27 11:24:41;;;;;;;8.55;1.88;;;;;;;24.22;42.56;96966.31;2071643;28;20879;-59
2023/06/27 11:25:45;;;;;;;6.47;2.00;;;;;;;23.98;43.09;96971.31;2073983;28;20598;-61
2023/06/27 11:26:51;;;;;;;6.40;1.67;;;;;;;24.39;42.73;96963.84;2074588;28;20193;-60
2023/06/27 11:27:56;;;;;;;10.25;1.83;;;;;;;24.44;42.45;96962.44;2075606;28;20259;-59
2023/06/27 11:29:02;;;;;;;10.40;2.00;;;;;;;24.57;42.23;96955.88;2073085;28;20243;-58
2023/06/27 11:30:05;;;;;;;10.05;1.90;;;;;;;24.51;42.42;96964.50;2072418;28;20221;-59
2023/06/27 11:31:06;;;;;;;5.07;1.75;;;;;;;24.71;42.71;96957.25;2078143;28;20197;-59
2023/06/27 11:32:09;;;;;;;7.43;1.50;;;;;;;24.57;42.55;96964.75;2080125;28;20200;-59
2023/06/27 11:33:14;;;;;;;6.45;2.10;;;;;;;24.68;43.07;96957.56;2070986;28;20205;-59
2023/06/27 11:34:16;;;;;;;5.13;1.83;;;;;;;24.49;42.66;96953.97;2075794;28;20205;-59
2023/06/27 11:35:18;;;;;;;3.35;1.60;;;;;;;24.28;42.76;96963.06;2073613;28;20237;-59
2023/06/27 11:36:21;;;;;;;6.40;2.53;;;;;;;24.05;42.95;96959.06;2074681;28;20274;-59
2023/06/27 11:37:22;;;;;;;5.20;2.28;;;;;;;24.23;42.90;96957.31;2072113;28;20197;-59
2023/06/27 11:38:25;;;;;;;8.43;1.80;;;;;;;23.92;43.47;96957.56;2076567;28;20225;-59
2023/06/27 11:39:27;;;;;;;8.15;2.17;;;;;;;24.27;42.97;96960.53;2070047;28;20229;-59
2023/06/27 11:40:30;;;;;;;17.38;2.38;;;;;;;24.18;43.14;96956.91;2072181;28;20205;-59